Airfield :
LOGIN :

Register | Disclaimer

   EN    FR    IT 

 










Legend :    VFR   Marginal VFR   IFR   Intensive IFR   Very Intensive IFR
Visi :
Ceiling :
>= 8 km
>= 3000ft
5 to 8 km
1000 to 3000 ft
1500m to 5 km
500 to 1000 ft
800 to 1500m
200 to 500 ft
< 800m
< 200 ft
Symbols :   Thunderstorms  Fog  Heavy snow  Heavy precipitations  Wind > 20 kt
SIGMETs :     Misc.  Thunderstorms  Icing  Turbulence  Mountain Waves  Volcanic Ashes







- Airport Elevation : 106 ft
- IATA code : XDA
- Download approach charts


LFBY - Dax Seyresse

CURRENT METAR :
  • 180930Z AUTO 08010KT 8000 // FEW030/// ///CB 09/08 Q1010

EXPIRED METARs :
  • 180900Z AUTO 08004KT 040V100 5000 1100 // FEW039/// ///CB 09/08 Q1010
  • 180830Z AUTO 08003KT 360V140 9999 // FEW010/// ///CB 09/08 Q1010
  • 180800Z AUTO VRB02KT 9999 // ////// 09/08 Q1010
  • 180730Z AUTO 12010KT 1600 // ////// 09/08 Q1009
  • 180700Z AUTO 08013KT 1100 // FEW031/// SCT039/// BKN048/// ///CB 09/08 Q1009

Expired Forecast.
No reported NOTAMs for that airfield.
1 SIGMET reported for the Bordeaux FIR (LFBB) :
 
Severe turbulence
LFBB SIGMET 1 VALID 180900/181200 LFPW
LFBB BORDEAUX FIR/UIR SEV TURB FCST WI N4315 E00100 - N4345 E00100 - N4330 E00200 - N4400 E00215 - N4345 E00245 - N4300 E00230 - N4315 E00100 SFC/FL040 STNR NC=



MET'MAP, your aeronautical weather chart ! - Copyright ORBIFLY December 2007 - Disclaimer

ORBIFLY MET'MAP TEAM :

Programming & Development : Alexandra Zaïnal
Concept & Development : Baudouin d'Aumeries
Co-Development & Prog : Marc-Olivier Méhu
Technical & hardware support : Manuel Goepfert

Contact : metmap@orbifly.com




SOURCES & CREDITS :

   NOAA